sensor_id;sensor_type;location;lat;lon;timestamp;temperature;humidity
15184;DHT22;7693;49.266;7.104;2022-10-16T04:49:42;14.70;99.90
15184;DHT22;7693;49.266;7.104;2022-10-16T04:52:08;14.70;99.90
15184;DHT22;7693;49.266;7.104;2022-10-16T04:54:34;14.70;99.90
15184;DHT22;7693;49.266;7.104;2022-10-16T04:57:00;14.80;99.90
15184;DHT22;7693;49.266;7.104;2022-10-16T04:59:25;14.80;99.90
15184;DHT22;7693;49.266;7.104;2022-10-16T05:01:51;14.80;99.90
15184;DHT22;7693;49.266;7.104;2022-10-16T05:04:17;14.80;99.90
15184;DHT22;7693;49.266;7.104;2022-10-16T05:06:42;14.90;99.90
15184;DHT22;7693;49.266;7.104;2022-10-16T05:09:08;14.90;99.90
15184;DHT22;7693;49.266;7.104;2022-10-16T05:11:34;14.80;99.90
15184;DHT22;7693;49.266;7.104;2022-10-16T05:14:00;14.80;99.90
15184;DHT22;7693;49.266;7.104;2022-10-16T05:16:26;14.80;99.90
15184;DHT22;7693;49.266;7.104;2022-10-16T05:18:52;14.90;99.90
15184;DHT22;7693;49.266;7.104;2022-10-16T05:21:17;14.90;99.90
15184;DHT22;7693;49.266;7.104;2022-10-16T05:23:43;14.90;99.90
15184;DHT22;7693;49.266;7.104;2022-10-16T05:26:08;14.90;99.90
15184;DHT22;7693;49.266;7.104;2022-10-16T05:28:35;14.90;99.90
15184;DHT22;7693;49.266;7.104;2022-10-16T05:31:05;14.90;99.90
15184;DHT22;7693;49.266;7.104;2022-10-16T05:33:31;15.00;99.90
15184;DHT22;7693;49.266;7.104;2022-10-16T05:35:56;14.90;99.90
15184;DHT22;7693;49.266;7.104;2022-10-16T05:38:22;14.90;99.90
15184;DHT22;7693;49.266;7.104;2022-10-16T05:40:51;14.90;99.90
15184;DHT22;7693;49.266;7.104;2022-10-16T05:43:18;15.00;99.90
15184;DHT22;7693;49.266;7.104;2022-10-16T05:45:43;15.00;99.90
15184;DHT22;7693;49.266;7.104;2022-10-16T05:48:09;15.00;99.90
15184;DHT22;7693;49.266;7.104;2022-10-16T05:50:34;15.00;99.90
15184;DHT22;7693;49.266;7.104;2022-10-16T05:53:00;15.00;99.90
15184;DHT22;7693;49.266;7.104;2022-10-16T05:55:25;15.00;99.90
15184;DHT22;7693;49.266;7.104;2022-10-16T05:57:54;15.00;99.90
15184;DHT22;7693;49.266;7.104;2022-10-16T06:00:20;15.00;99.90
15184;DHT22;7693;49.266;7.104;2022-10-16T06:02:45;15.00;99.90
15184;DHT22;7693;49.266;7.104;2022-10-16T06:05:11;15.00;99.90
15184;DHT22;7693;49.266;7.104;2022-10-16T06:07:37;15.00;99.90
15184;DHT22;7693;49.266;7.104;2022-10-16T06:10:03;15.00;99.90
15184;DHT22;7693;49.266;7.104;2022-10-16T06:12:29;15.00;99.90
15184;DHT22;7693;49.266;7.104;2022-10-16T06:14:55;15.00;99.90
15184;DHT22;7693;49.266;7.104;2022-10-16T06:17:20;15.00;99.90
15184;DHT22;7693;49.266;7.104;2022-10-16T06:19:46;15.00;99.90
15184;DHT22;7693;49.266;7.104;2022-10-16T06:22:11;15.00;99.90
15184;DHT22;7693;49.266;7.104;2022-10-16T06:24:37;15.10;99.90
15184;DHT22;7693;49.266;7.104;2022-10-16T06:27:04;15.10;99.90
15184;DHT22;7693;49.266;7.104;2022-10-16T06:29:29;15.10;99.90
15184;DHT22;7693;49.266;7.104;2022-10-16T06:31:55;15.10;99.90
15184;DHT22;7693;49.266;7.104;2022-10-16T06:34:20;15.10;99.90
15184;DHT22;7693;49.266;7.104;2022-10-16T06:36:46;15.20;99.90
15184;DHT22;7693;49.266;7.104;2022-10-16T06:39:12;15.10;99.90
15184;DHT22;7693;49.266;7.104;2022-10-16T06:41:37;15.10;99.90
15184;DHT22;7693;49.266;7.104;2022-10-16T06:44:07;15.10;99.90
15184;DHT22;7693;49.266;7.104;2022-10-16T06:46:33;15.10;99.90
15184;DHT22;7693;49.266;7.104;2022-10-16T06:48:59;15.20;99.90
15184;DHT22;7693;49.266;7.104;2022-10-16T06:51:25;15.20;99.90
15184;DHT22;7693;49.266;7.104;2022-10-16T06:53:53;15.20;99.90
15184;DHT22;7693;49.266;7.104;2022-10-16T06:56:23;15.20;99.90
15184;DHT22;7693;49.266;7.104;2022-10-16T06:58:50;15.20;99.90
15184;DHT22;7693;49.266;7.104;2022-10-16T07:01:18;15.20;99.90
15184;DHT22;7693;49.266;7.104;2022-10-16T07:03:45;15.30;99.90
15184;DHT22;7693;49.266;7.104;2022-10-16T07:06:13;15.40;99.90
15184;DHT22;7693;49.266;7.104;2022-10-16T07:08:40;15.40;99.90
15184;DHT22;7693;49.266;7.104;2022-10-16T07:11:08;15.50;99.90
15184;DHT22;7693;49.266;7.104;2022-10-16T07:13:39;15.50;99.90
15184;DHT22;7693;49.266;7.104;2022-10-16T07:16:16;15.60;99.90
15184;DHT22;7693;49.266;7.104;2022-10-16T07:18:44;15.60;99.90
15184;DHT22;7693;49.266;7.104;2022-10-16T07:21:21;15.60;99.90
15184;DHT22;7693;49.266;7.104;2022-10-16T07:23:51;15.60;99.90
15184;DHT22;7693;49.266;7.104;2022-10-16T07:26:17;15.60;99.90
15184;DHT22;7693;49.266;7.104;2022-10-16T07:28:43;15.60;99.90
15184;DHT22;7693;49.266;7.104;2022-10-16T07:31:11;15.60;99.90
15184;DHT22;7693;49.266;7.104;2022-10-16T07:33:38;15.60;99.90
15184;DHT22;7693;49.266;7.104;2022-10-16T07:36:04;15.70;99.90
15184;DHT22;7693;49.266;7.104;2022-10-16T07:38:30;15.70;99.90
15184;DHT22;7693;49.266;7.104;2022-10-16T07:41:01;15.70;99.90
15184;DHT22;7693;49.266;7.104;2022-10-16T07:43:27;15.80;99.90
15184;DHT22;7693;49.266;7.104;2022-10-16T07:45:53;15.80;99.90
15184;DHT22;7693;49.266;7.104;2022-10-16T07:48:21;15.80;99.90
15184;DHT22;7693;49.266;7.104;2022-10-16T07:50:47;15.80;99.90
15184;DHT22;7693;49.266;7.104;2022-10-16T07:53:12;15.90;99.90
15184;DHT22;7693;49.266;7.104;2022-10-16T07:55:38;15.90;99.90
15184;DHT22;7693;49.266;7.104;2022-10-16T07:58:04;16.00;99.90
15184;DHT22;7693;49.266;7.104;2022-10-16T08:00:31;16.00;99.90
15184;DHT22;7693;49.266;7.104;2022-10-16T08:02:57;16.00;99.90
15184;DHT22;7693;49.266;7.104;2022-10-16T08:05:26;16.00;99.90
15184;DHT22;7693;49.266;7.104;2022-10-16T08:07:52;16.10;99.90
15184;DHT22;7693;49.266;7.104;2022-10-16T08:10:19;16.10;99.90
15184;DHT22;7693;49.266;7.104;2022-10-16T08:12:45;16.10;99.90
15184;DHT22;7693;49.266;7.104;2022-10-16T08:15:11;16.10;99.90
15184;DHT22;7693;49.266;7.104;2022-10-16T08:17:37;16.20;99.90
15184;DHT22;7693;49.266;7.104;2022-10-16T08:20:03;16.20;99.90
15184;DHT22;7693;49.266;7.104;2022-10-16T08:22:29;16.20;99.90
15184;DHT22;7693;49.266;7.104;2022-10-16T08:24:54;16.20;99.90
15184;DHT22;7693;49.266;7.104;2022-10-16T08:27:20;16.20;99.90
15184;DHT22;7693;49.266;7.104;2022-10-16T08:29:46;16.30;99.90
15184;DHT22;7693;49.266;7.104;2022-10-16T08:32:11;16.30;99.90
15184;DHT22;7693;49.266;7.104;2022-10-16T08:34:37;16.30;99.90
15184;DHT22;7693;49.266;7.104;2022-10-16T08:37:03;16.40;99.90
15184;DHT22;7693;49.266;7.104;2022-10-16T08:39:28;16.40;99.90
15184;DHT22;7693;49.266;7.104;2022-10-16T08:50:26;16.50;99.90
15184;DHT22;7693;49.266;7.104;2022-10-16T08:52:53;16.60;99.90
15184;DHT22;7693;49.266;7.104;2022-10-16T08:56:02;16.60;99.90
15184;DHT22;7693;49.266;7.104;2022-10-16T08:58:13;16.60;99.90
15184;DHT22;7693;49.266;7.104;2022-10-16T09:00:40;16.70;99.90
15184;DHT22;7693;49.266;7.104;2022-10-16T12:07:23;18.10;99.90
15184;DHT22;7693;49.266;7.104;2022-10-16T12:09:50;18.10;99.90
15184;DHT22;7693;49.266;7.104;2022-10-16T12:12:42;18.10;99.90
15184;DHT22;7693;49.266;7.104;2022-10-16T12:15:26;18.10;99.90
15184;DHT22;7693;49.266;7.104;2022-10-16T12:17:52;18.10;99.90
15184;DHT22;7693;49.266;7.104;2022-10-16T12:20:32;18.10;99.90
15184;DHT22;7693;49.266;7.104;2022-10-16T12:23:00;18.10;99.90
15184;DHT22;7693;49.266;7.104;2022-10-16T12:25:35;18.10;99.90
15184;DHT22;7693;49.266;7.104;2022-10-16T12:28:17;18.20;99.90
15184;DHT22;7693;49.266;7.104;2022-10-16T12:30:53;18.20;99.90
15184;DHT22;7693;49.266;7.104;2022-10-16T12:33:25;18.20;99.90
15184;DHT22;7693;49.266;7.104;2022-10-16T12:35:51;18.30;99.90
15184;DHT22;7693;49.266;7.104;2022-10-16T12:38:45;18.30;99.90
15184;DHT22;7693;49.266;7.104;2022-10-16T12:41:11;18.30;99.90
15184;DHT22;7693;49.266;7.104;2022-10-16T12:43:44;18.40;99.90
15184;DHT22;7693;49.266;7.104;2022-10-16T12:48:37;18.40;99.90
15184;DHT22;7693;49.266;7.104;2022-10-16T15:05:28;19.00;99.90
15184;DHT22;7693;49.266;7.104;2022-10-16T15:07:54;18.90;99.90
15184;DHT22;7693;49.266;7.104;2022-10-16T15:10:22;18.90;99.90
15184;DHT22;7693;49.266;7.104;2022-10-16T15:12:48;18.90;99.90
15184;DHT22;7693;49.266;7.104;2022-10-16T15:17:53;18.90;99.90
15184;DHT22;7693;49.266;7.104;2022-10-16T15:20:23;19.00;99.90
15184;DHT22;7693;49.266;7.104;2022-10-16T15:22:49;19.00;99.90
15184;DHT22;7693;49.266;7.104;2022-10-16T15:27:49;19.00;99.90
15184;DHT22;7693;49.266;7.104;2022-10-16T15:30:14;19.00;99.90
15184;DHT22;7693;49.266;7.104;2022-10-16T15:32:40;19.10;99.90
15184;DHT22;7693;49.266;7.104;2022-10-16T15:35:08;19.10;99.90
15184;DHT22;7693;49.266;7.104;2022-10-16T15:37:34;19.00;99.90
15184;DHT22;7693;49.266;7.104;2022-10-16T15:39:59;19.00;99.90
15184;DHT22;7693;49.266;7.104;2022-10-16T15:42:25;19.00;99.90
15184;DHT22;7693;49.266;7.104;2022-10-16T15:44:51;19.00;99.90
15184;DHT22;7693;49.266;7.104;2022-10-16T15:47:16;19.00;99.90
15184;DHT22;7693;49.266;7.104;2022-10-16T15:49:42;18.90;99.90
15184;DHT22;7693;49.266;7.104;2022-10-16T15:52:07;18.90;99.90
15184;DHT22;7693;49.266;7.104;2022-10-16T15:54:33;18.80;99.90
15184;DHT22;7693;49.266;7.104;2022-10-16T18:45:28;15.40;99.90
15184;DHT22;7693;49.266;7.104;2022-10-16T18:47:53;15.40;99.90
15184;DHT22;7693;49.266;7.104;2022-10-16T18:50:19;15.40;99.90
15184;DHT22;7693;49.266;7.104;2022-10-16T18:52:46;15.40;99.90
15184;DHT22;7693;49.266;7.104;2022-10-16T18:55:13;15.40;99.90
15184;DHT22;7693;49.266;7.104;2022-10-16T18:57:38;15.40;99.90
15184;DHT22;7693;49.266;7.104;2022-10-16T19:00:05;15.50;99.90
15184;DHT22;7693;49.266;7.104;2022-10-16T19:02:31;15.40;99.90
15184;DHT22;7693;49.266;7.104;2022-10-16T19:04:56;15.40;99.90
15184;DHT22;7693;49.266;7.104;2022-10-16T19:07:22;15.40;99.90
15184;DHT22;7693;49.266;7.104;2022-10-16T19:09:47;15.40;99.90
15184;DHT22;7693;49.266;7.104;2022-10-16T19:12:13;15.40;99.90
15184;DHT22;7693;49.266;7.104;2022-10-16T19:14:39;15.40;99.90
15184;DHT22;7693;49.266;7.104;2022-10-16T19:17:04;15.40;99.90
15184;DHT22;7693;49.266;7.104;2022-10-16T19:19:30;15.40;99.90
15184;DHT22;7693;49.266;7.104;2022-10-16T19:21:55;15.30;99.90
15184;DHT22;7693;49.266;7.104;2022-10-16T19:24:36;15.30;99.90
15184;DHT22;7693;49.266;7.104;2022-10-16T19:27:01;15.30;99.90
15184;DHT22;7693;49.266;7.104;2022-10-16T19:29:27;15.20;99.90
15184;DHT22;7693;49.266;7.104;2022-10-16T19:31:52;15.20;99.90
15184;DHT22;7693;49.266;7.104;2022-10-16T19:34:18;15.20;99.90
15184;DHT22;7693;49.266;7.104;2022-10-16T19:36:44;15.20;99.90
15184;DHT22;7693;49.266;7.104;2022-10-16T19:39:13;15.10;99.90
15184;DHT22;7693;49.266;7.104;2022-10-16T19:41:39;15.20;99.90
15184;DHT22;7693;49.266;7.104;2022-10-16T19:44:08;15.10;99.90
15184;DHT22;7693;49.266;7.104;2022-10-16T19:46:34;15.10;99.90
15184;DHT22;7693;49.266;7.104;2022-10-16T19:49:03;15.10;99.90
15184;DHT22;7693;49.266;7.104;2022-10-16T19:51:29;15.10;99.90
15184;DHT22;7693;49.266;7.104;2022-10-16T19:54:00;15.10;99.90
15184;DHT22;7693;49.266;7.104;2022-10-16T19:56:28;15.10;99.90
15184;DHT22;7693;49.266;7.104;2022-10-16T19:58:55;15.00;99.90
15184;DHT22;7693;49.266;7.104;2022-10-16T20:01:22;15.00;99.90
15184;DHT22;7693;49.266;7.104;2022-10-16T20:03:48;15.00;99.90
15184;DHT22;7693;49.266;7.104;2022-10-16T20:06:15;15.00;99.90
15184;DHT22;7693;49.266;7.104;2022-10-16T20:08:42;15.00;99.90
15184;DHT22;7693;49.266;7.104;2022-10-16T20:11:11;14.90;99.90
15184;DHT22;7693;49.266;7.104;2022-10-16T20:13:37;14.90;99.90
15184;DHT22;7693;49.266;7.104;2022-10-16T20:16:04;14.90;99.90
15184;DHT22;7693;49.266;7.104;2022-10-16T20:18:30;14.90;99.90
15184;DHT22;7693;49.266;7.104;2022-10-16T20:20:56;14.90;99.90
15184;DHT22;7693;49.266;7.104;2022-10-16T20:23:22;14.80;99.90
15184;DHT22;7693;49.266;7.104;2022-10-16T20:25:50;14.80;99.90
15184;DHT22;7693;49.266;7.104;2022-10-16T20:28:19;14.80;99.90
15184;DHT22;7693;49.266;7.104;2022-10-16T20:30:47;14.80;99.90
15184;DHT22;7693;49.266;7.104;2022-10-16T20:33:13;14.80;99.90
15184;DHT22;7693;49.266;7.104;2022-10-16T20:35:44;14.80;99.90
15184;DHT22;7693;49.266;7.104;2022-10-16T20:38:12;14.80;99.90
15184;DHT22;7693;49.266;7.104;2022-10-16T20:40:39;14.80;99.90
15184;DHT22;7693;49.266;7.104;2022-10-16T20:43:06;14.70;99.90
15184;DHT22;7693;49.266;7.104;2022-10-16T20:45:32;14.70;99.90
15184;DHT22;7693;49.266;7.104;2022-10-16T20:47:58;14.70;99.90
15184;DHT22;7693;49.266;7.104;2022-10-16T20:50:27;14.70;99.90
15184;DHT22;7693;49.266;7.104;2022-10-16T20:52:53;14.60;99.90
15184;DHT22;7693;49.266;7.104;2022-10-16T20:55:19;14.60;99.90
15184;DHT22;7693;49.266;7.104;2022-10-16T20:57:44;14.60;99.90
15184;DHT22;7693;49.266;7.104;2022-10-16T21:00:10;14.60;99.90
15184;DHT22;7693;49.266;7.104;2022-10-16T21:02:36;14.60;99.90
15184;DHT22;7693;49.266;7.104;2022-10-16T21:05:02;14.60;99.90
15184;DHT22;7693;49.266;7.104;2022-10-16T21:07:28;14.60;99.90
15184;DHT22;7693;49.266;7.104;2022-10-16T21:09:54;14.50;99.90
15184;DHT22;7693;49.266;7.104;2022-10-16T21:12:21;14.50;99.90
15184;DHT22;7693;49.266;7.104;2022-10-16T21:14:47;14.50;99.90
15184;DHT22;7693;49.266;7.104;2022-10-16T21:17:12;14.50;99.90
15184;DHT22;7693;49.266;7.104;2022-10-16T21:19:38;14.50;99.90
15184;DHT22;7693;49.266;7.104;2022-10-16T21:22:03;14.50;99.90
15184;DHT22;7693;49.266;7.104;2022-10-16T21:24:29;14.40;99.90
15184;DHT22;7693;49.266;7.104;2022-10-16T21:26:54;14.50;99.90
15184;DHT22;7693;49.266;7.104;2022-10-16T21:29:20;14.50;99.90
15184;DHT22;7693;49.266;7.104;2022-10-16T21:31:46;14.50;99.90
15184;DHT22;7693;49.266;7.104;2022-10-16T21:34:11;14.50;99.90
15184;DHT22;7693;49.266;7.104;2022-10-16T21:36:39;14.50;99.90
15184;DHT22;7693;49.266;7.104;2022-10-16T21:39:10;14.50;99.90
15184;DHT22;7693;49.266;7.104;2022-10-16T21:41:37;14.50;99.90
15184;DHT22;7693;49.266;7.104;2022-10-16T21:44:03;14.40;99.90
15184;DHT22;7693;49.266;7.104;2022-10-16T21:46:31;14.50;99.90
15184;DHT22;7693;49.266;7.104;2022-10-16T21:48:59;14.50;99.90
15184;DHT22;7693;49.266;7.104;2022-10-16T21:51:26;14.50;99.90
15184;DHT22;7693;49.266;7.104;2022-10-16T21:53:53;14.50;99.90
15184;DHT22;7693;49.266;7.104;2022-10-16T21:56:19;14.50;99.90
15184;DHT22;7693;49.266;7.104;2022-10-16T21:58:45;14.50;99.90
15184;DHT22;7693;49.266;7.104;2022-10-16T22:01:13;14.50;99.90
